Time,TemperatureF,DewpointF,PressureIn,WindDirection,WindDirectionDegrees,WindSpeedMPH,WindSpeedGustMPH,Humidity,HourlyPrecipIn,Conditions,Clouds,dailyrainin,SoftwareType,DateUTC
2013-02-16 00:04:00,35.3,34.4,30.00,SSW,205,0.0,0.0,96,0.00,,,0.00,Weather View 32 v70,2013-02-16 05:04:00,
2013-02-16 00:09:00,35.2,34.3,30.00,SSW,205,0.0,0.0,97,0.00,,,0.00,Weather View 32 v70,2013-02-16 05:09:00,
2013-02-16 00:14:00,35.1,34.2,30.00,SSW,205,0.0,0.0,97,0.00,,,0.00,Weather View 32 v70,2013-02-16 05:14:00,
2013-02-16 00:19:00,35.1,34.2,30.00,SSW,205,0.0,0.0,97,0.00,,,0.00,Weather View 32 v70,2013-02-16 05:19:00,
2013-02-16 00:24:00,35.1,34.2,30.00,SSW,205,0.0,0.0,97,0.00,,,0.00,Weather View 32 v70,2013-02-16 05:24:00,
2013-02-16 00:29:00,35.0,34.1,30.00,SSW,205,0.0,0.0,97,0.00,,,0.00,Weather View 32 v70,2013-02-16 05:29:00,
2013-02-16 00:34:00,34.8,33.9,30.00,SSW,205,0.0,0.0,97,0.00,,,0.00,Weather View 32 v70,2013-02-16 05:34:00,
2013-02-16 00:39:00,34.7,33.9,30.00,SSW,205,0.0,0.0,97,0.00,,,0.00,Weather View 32 v70,2013-02-16 05:39:00,
2013-02-16 00:41:00,34.7,33.9,30.00,SSW,205,0.0,0.0,97,0.00,,,0.00,Weather View 32 v70,2013-02-16 05:41:00,
2013-02-16 00:49:00,34.6,33.8,30.00,SSW,205,0.0,0.0,97,0.00,,,0.00,Weather View 32 v70,2013-02-16 05:49:00,
2013-02-16 00:54:00,34.5,33.7,30.00,SSW,205,0.0,0.0,97,0.00,,,0.00,Weather View 32 v70,2013-02-16 05:54:00,
2013-02-16 00:59:00,34.6,33.8,30.00,SSW,205,0.0,0.0,97,0.00,,,0.00,Weather View 32 v70,2013-02-16 05:59:00,
2013-02-16 01:05:00,34.3,33.5,30.00,SSW,205,0.0,0.0,97,0.00,,,0.00,Weather View 32 v70,2013-02-16 06:05:00,
2013-02-16 01:15:00,34.1,33.3,29.99,SSW,205,0.0,0.0,97,0.00,,,0.00,Weather View 32 v70,2013-02-16 06:15:00,
2013-02-16 01:20:00,34.2,33.4,29.99,SSW,205,0.0,0.0,97,0.00,,,0.00,Weather View 32 v70,2013-02-16 06:20:00,
2013-02-16 01:29:00,34.2,33.5,29.99,SSW,193,3.0,4.0,97,0.00,,,0.00,Weather View 32 v70,2013-02-16 06:29:00,
2013-02-16 01:34:00,34.3,33.6,29.99,SSW,198,0.0,4.0,97,0.00,,,0.00,Weather View 32 v70,2013-02-16 06:34:00,
2013-02-16 01:40:00,34.3,33.6,29.99,SSW,198,0.0,4.0,97,0.00,,,0.00,Weather View 32 v70,2013-02-16 06:40:00,
2013-02-16 01:49:00,34.3,33.6,29.99,ENE,59,5.0,5.0,97,0.00,,,0.00,Weather View 32 v70,2013-02-16 06:49:00,
2013-02-16 01:54:00,34.3,33.6,29.99,NE,44,3.0,6.0,97,0.00,,,0.00,Weather View 32 v70,2013-02-16 06:54:00,
2013-02-16 01:59:00,34.2,33.5,30.00,East,89,1.0,6.0,97,0.00,,,0.00,Weather View 32 v70,2013-02-16 06:59:00,
2013-02-16 02:09:00,34.2,33.5,30.00,NNE,23,0.0,6.0,97,0.00,,,0.00,Weather View 32 v70,2013-02-16 07:09:00,
2013-02-16 02:14:00,34.3,33.6,30.00,North,354,0.0,6.0,97,0.00,,,0.00,Weather View 32 v70,2013-02-16 07:14:00,
2013-02-16 02:19:00,34.3,33.6,30.00,East,84,2.0,6.0,97,0.00,,,0.00,Weather View 32 v70,2013-02-16 07:19:00,
2013-02-16 02:29:00,34.4,33.7,29.99,NE,44,0.0,6.0,97,0.00,,,0.00,Weather View 32 v70,2013-02-16 07:29:00,
2013-02-16 02:34:00,34.5,33.9,29.99,NE,44,0.0,6.0,98,0.00,,,0.00,Weather View 32 v70,2013-02-16 07:34:00,
2013-02-16 02:39:00,34.7,34.1,29.99,NE,44,0.0,6.0,98,0.00,,,0.00,Weather View 32 v70,2013-02-16 07:39:00,
2013-02-16 02:45:00,34.7,34.1,29.99,NE,44,0.0,6.0,98,0.00,,,0.00,Weather View 32 v70,2013-02-16 07:45:00,
2013-02-16 02:50:00,34.9,34.3,29.99,NE,44,0.0,6.0,98,0.00,,,0.00,Weather View 32 v70,2013-02-16 07:50:00,
2013-02-16 02:55:00,34.9,34.3,29.99,NE,44,0.0,4.0,98,0.00,,,0.00,Weather View 32 v70,2013-02-16 07:55:00,
2013-02-16 03:00:00,34.9,34.2,29.98,NE,44,0.0,4.0,97,0.00,,,0.00,Weather View 32 v70,2013-02-16 08:00:00,
2013-02-16 03:10:00,34.8,34.1,29.98,NE,44,0.0,4.0,97,0.00,,,0.00,Weather View 32 v70,2013-02-16 08:10:00,
2013-02-16 03:15:00,34.7,34.0,29.98,NE,44,0.0,4.0,97,0.00,,,0.00,Weather View 32 v70,2013-02-16 08:15:00,
2013-02-16 03:20:00,34.6,33.9,29.98,NE,44,0.0,4.0,97,0.00,,,0.00,Weather View 32 v70,2013-02-16 08:20:00,
2013-02-16 03:29:00,34.6,33.9,29.98,NE,44,0.0,0.0,97,0.00,,,0.00,Weather View 32 v70,2013-02-16 08:29:00,
2013-02-16 03:35:00,34.6,33.9,29.98,NE,44,0.0,0.0,97,0.00,,,0.00,Weather View 32 v70,2013-02-16 08:35:00,
2013-02-16 03:40:00,34.5,33.8,29.98,NE,44,0.0,0.0,97,0.00,,,0.00,Weather View 32 v70,2013-02-16 08:40:00,
2013-02-16 03:44:00,34.5,33.8,29.98,NE,44,0.0,0.0,97,0.00,,,0.00,Weather View 32 v70,2013-02-16 08:44:00,
2013-02-16 03:49:00,34.4,33.7,29.98,NE,44,0.0,0.0,97,0.00,,,0.00,Weather View 32 v70,2013-02-16 08:49:00,
2013-02-16 03:55:00,34.4,33.7,29.98,NE,44,0.0,0.0,97,0.00,,,0.00,Weather View 32 v70,2013-02-16 08:55:00,
2013-02-16 04:00:00,34.5,33.9,29.98,NE,44,0.0,0.0,98,0.00,,,0.00,Weather View 32 v70,2013-02-16 09:00:00,
2013-02-16 04:09:00,34.6,34.0,29.98,NE,44,0.0,0.0,98,0.00,,,0.00,Weather View 32 v70,2013-02-16 09:09:00,
2013-02-16 04:14:00,34.4,33.7,29.98,NE,44,0.0,0.0,97,0.00,,,0.00,Weather View 32 v70,2013-02-16 09:14:00,
2013-02-16 04:19:00,34.3,33.6,29.98,North,4,0.0,4.0,97,0.00,,,0.00,Weather View 32 v70,2013-02-16 09:19:00,
2013-02-16 04:29:00,34.1,33.5,29.97,North,4,0.0,4.0,98,0.00,,,0.00,Weather View 32 v70,2013-02-16 09:29:00,
2013-02-16 04:34:00,34.0,33.4,29.98,North,4,0.0,4.0,98,0.00,,,0.00,Weather View 32 v70,2013-02-16 09:34:00,
2013-02-16 04:39:00,34.0,33.4,29.98,North,4,0.0,4.0,98,0.00,,,0.00,Weather View 32 v70,2013-02-16 09:39:00,
2013-02-16 04:49:00,34.2,33.6,29.98,North,4,0.0,4.0,98,0.00,,,0.00,Weather View 32 v70,2013-02-16 09:49:00,
2013-02-16 04:54:00,34.3,33.6,29.98,North,4,0.0,4.0,97,0.00,,,0.00,Weather View 32 v70,2013-02-16 09:54:00,
2013-02-16 04:59:00,34.3,33.6,29.98,North,4,0.0,4.0,97,0.00,,,0.00,Weather View 32 v70,2013-02-16 09:59:00,
2013-02-16 05:09:00,34.6,33.8,29.98,North,4,0.0,4.0,97,0.00,,,0.00,Weather View 32 v70,2013-02-16 10:09:00,
2013-02-16 05:14:00,34.7,33.9,29.98,North,4,0.0,4.0,97,0.00,,,0.00,Weather View 32 v70,2013-02-16 10:14:00,
2013-02-16 05:19:00,34.8,34.0,29.98,North,4,0.0,0.0,97,0.00,,,0.00,Weather View 32 v70,2013-02-16 10:19:00,
2013-02-16 05:25:00,34.8,33.9,29.98,North,4,0.0,0.0,97,0.00,,,0.00,Weather View 32 v70,2013-02-16 10:25:00,
2013-02-16 05:34:00,34.8,33.9,29.98,North,4,0.0,0.0,97,0.00,,,0.00,Weather View 32 v70,2013-02-16 10:34:00,
2013-02-16 05:39:00,34.7,33.8,29.98,North,4,0.0,0.0,96,0.00,,,0.00,Weather View 32 v70,2013-02-16 10:39:00,
2013-02-16 05:45:00,34.5,33.6,29.98,North,4,0.0,0.0,96,0.00,,,0.00,Weather View 32 v70,2013-02-16 10:45:00,
2013-02-16 05:55:00,34.4,33.5,29.98,North,4,0.0,0.0,96,0.00,,,0.00,Weather View 32 v70,2013-02-16 10:55:00,
2013-02-16 06:05:00,34.3,33.3,29.98,North,4,0.0,0.0,96,0.00,,,0.00,Weather View 32 v70,2013-02-16 11:05:00,
2013-02-16 06:14:00,33.9,33.0,29.98,North,4,0.0,0.0,96,0.00,,,0.00,Weather View 32 v70,2013-02-16 11:14:00,
2013-02-16 06:19:00,33.9,33.0,29.98,North,4,0.0,0.0,97,0.00,,,0.00,Weather View 32 v70,2013-02-16 11:19:00,
2013-02-16 06:24:00,34.1,33.2,29.98,North,4,0.0,0.0,97,0.00,,,0.00,Weather View 32 v70,2013-02-16 11:24:00,
2013-02-16 06:29:00,34.0,33.1,29.98,North,4,0.0,0.0,97,0.00,,,0.00,Weather View 32 v70,2013-02-16 11:29:00,
2013-02-16 06:35:00,34.1,33.2,29.98,North,4,0.0,0.0,97,0.00,,,0.00,Weather View 32 v70,2013-02-16 11:35:00,
2013-02-16 06:40:00,34.0,33.1,29.98,North,4,0.0,0.0,96,0.00,,,0.00,Weather View 32 v70,2013-02-16 11:40:00,
2013-02-16 06:50:00,33.9,33.0,29.98,North,4,0.0,0.0,96,0.00,,,0.00,Weather View 32 v70,2013-02-16 11:50:00,
2013-02-16 06:55:00,33.7,32.8,29.98,North,4,0.0,0.0,96,0.00,,,0.00,Weather View 32 v70,2013-02-16 11:55:00,
2013-02-16 07:00:00,33.8,32.9,29.98,North,4,0.0,0.0,96,0.00,,,0.00,Weather View 32 v70,2013-02-16 12:00:00,
2013-02-16 07:09:00,33.8,32.9,29.97,North,4,0.0,0.0,96,0.00,,,0.00,Weather View 32 v70,2013-02-16 12:09:00,
2013-02-16 07:15:00,33.8,32.9,29.97,North,4,0.0,0.0,96,0.00,,,0.00,Weather View 32 v70,2013-02-16 12:15:00,
2013-02-16 07:20:00,33.7,32.8,29.97,North,4,0.0,0.0,96,0.00,,,0.00,Weather View 32 v70,2013-02-16 12:20:00,
2013-02-16 07:29:00,33.8,32.9,29.98,North,4,0.0,0.0,96,0.00,,,0.00,Weather View 32 v70,2013-02-16 12:29:00,
2013-02-16 07:35:00,33.6,32.7,29.98,North,4,0.0,0.0,96,0.00,,,0.00,Weather View 32 v70,2013-02-16 12:35:00,
2013-02-16 07:40:00,33.7,32.8,29.97,North,4,0.0,0.0,96,0.00,,,0.00,Weather View 32 v70,2013-02-16 12:40:00,
2013-02-16 07:45:00,33.7,32.8,29.97,North,4,0.0,0.0,96,0.00,,,0.00,Weather View 32 v70,2013-02-16 12:45:00,
2013-02-16 07:54:00,33.8,32.9,29.97,North,4,0.0,0.0,96,0.00,,,0.00,Weather View 32 v70,2013-02-16 12:54:00,
2013-02-16 08:00:00,33.7,32.8,29.97,North,4,0.0,0.0,96,0.00,,,0.00,Weather View 32 v70,2013-02-16 13:00:00,
2013-02-16 08:09:00,33.9,33.0,29.97,North,4,0.0,0.0,96,0.00,,,0.00,Weather View 32 v70,2013-02-16 13:09:00,
2013-02-16 08:14:00,34.0,33.1,29.97,North,4,0.0,0.0,96,0.00,,,0.00,Weather View 32 v70,2013-02-16 13:14:00,
2013-02-16 08:19:00,34.1,33.2,29.97,North,4,0.0,0.0,96,0.00,,,0.00,Weather View 32 v70,2013-02-16 13:19:00,
2013-02-16 08:29:00,34.2,33.3,29.97,North,4,0.0,0.0,96,0.00,,,0.00,Weather View 32 v70,2013-02-16 13:29:00,
2013-02-16 08:34:00,34.3,33.4,29.97,North,4,0.0,0.0,96,0.00,,,0.00,Weather View 32 v70,2013-02-16 13:34:00,
2013-02-16 08:39:00,34.4,33.4,29.96,North,4,0.0,0.0,96,0.00,,,0.00,Weather View 32 v70,2013-02-16 13:39:00,
2013-02-16 08:46:00,34.6,33.6,29.96,North,4,0.0,0.0,96,0.00,,,0.00,Weather View 32 v70,2013-02-16 13:46:00,
2013-02-16 08:54:00,34.7,33.7,29.96,North,4,0.0,0.0,96,0.00,,,0.00,Weather View 32 v70,2013-02-16 13:54:00,
2013-02-16 08:59:00,34.7,33.6,29.96,NNE,20,0.0,4.0,96,0.00,,,0.00,Weather View 32 v70,2013-02-16 13:59:00,
2013-02-16 09:09:00,34.9,33.7,29.96,NNE,18,0.0,4.0,96,0.00,,,0.00,Weather View 32 v70,2013-02-16 14:09:00,
2013-02-16 09:14:00,34.8,33.6,29.96,NNE,31,1.0,4.0,95,0.00,,,0.00,Weather View 32 v70,2013-02-16 14:14:00,
2013-02-16 09:19:00,35.1,33.8,29.96,NNE,17,0.0,4.0,95,0.00,,,0.00,Weather View 32 v70,2013-02-16 14:19:00,
2013-02-16 09:24:00,35.1,33.8,29.96,NNE,13,0.0,4.0,95,0.01,,,0.01,Weather View 32 v70,2013-02-16 14:24:00,
2013-02-16 09:29:00,35.3,33.9,29.96,North,6,0.0,5.0,95,0.01,,,0.01,Weather View 32 v70,2013-02-16 14:29:00,
2013-02-16 09:34:00,35.3,33.8,29.96,NNE,31,3.0,5.0,94,0.01,,,0.01,Weather View 32 v70,2013-02-16 14:34:00,
2013-02-16 09:39:00,35.5,33.8,29.96,NNE,14,0.0,5.0,94,0.01,,,0.01,Weather View 32 v70,2013-02-16 14:39:00,
2013-02-16 09:46:00,35.6,34.0,29.96,NW,323,0.0,5.0,94,0.01,,,0.01,Weather View 32 v70,2013-02-16 14:46:00,
2013-02-16 09:54:00,35.9,33.7,29.96,NNW,347,3.0,7.0,92,0.02,,,0.02,Weather View 32 v70,2013-02-16 14:54:00,
2013-02-16 09:59:00,35.9,33.3,29.96,North,359,0.0,8.0,90,0.02,,,0.02,Weather View 32 v70,2013-02-16 14:59:00,
2013-02-16 10:09:00,35.9,32.7,29.96,NNW,333,0.0,9.0,88,0.02,,,0.02,Weather View 32 v70,2013-02-16 15:09:00,
2013-02-16 10:14:00,35.9,32.5,29.96,NNW,330,4.0,9.0,87,0.02,,,0.02,Weather View 32 v70,2013-02-16 15:14:00,
2013-02-16 10:19:00,36.1,32.7,29.96,NNE,20,6.0,9.0,87,0.02,,,0.02,Weather View 32 v70,2013-02-16 15:19:00,
2013-02-16 10:29:00,36.3,32.7,29.96,North,4,7.0,9.0,87,0.01,,,0.02,Weather View 32 v70,2013-02-16 15:29:00,
2013-02-16 10:34:00,36.2,32.6,29.96,NNE,30,7.0,9.0,87,0.01,,,0.02,Weather View 32 v70,2013-02-16 15:34:00,
2013-02-16 10:39:00,36.2,32.6,29.96,North,10,7.0,10.0,87,0.01,,,0.02,Weather View 32 v70,2013-02-16 15:39:00,
2013-02-16 10:47:00,36.0,32.1,29.96,North,0,8.0,12.0,86,0.01,,,0.02,Weather View 32 v70,2013-02-16 15:47:00,
2013-02-16 10:54:00,36.0,32.1,29.95,NE,38,4.0,12.0,86,0.00,,,0.02,Weather View 32 v70,2013-02-16 15:54:00,
2013-02-16 11:00:00,36.0,32.3,29.95,NNW,345,7.0,12.0,86,0.00,,,0.02,Weather View 32 v70,2013-02-16 16:00:00,
2013-02-16 11:09:00,35.6,32.3,29.95,NW,312,10.0,13.0,88,0.00,,,0.02,Weather View 32 v70,2013-02-16 16:09:00,
2013-02-16 11:14:00,35.4,32.2,29.95,NW,323,7.0,16.0,88,0.00,,,0.02,Weather View 32 v70,2013-02-16 16:14:00,
2013-02-16 11:19:00,35.1,31.9,29.95,North,359,7.0,16.0,88,0.00,,,0.02,Weather View 32 v70,2013-02-16 16:19:00,
2013-02-16 11:24:00,35.0,32.0,29.95,NW,323,11.0,16.0,89,0.00,,,0.02,Weather View 32 v70,2013-02-16 16:24:00,
2013-02-16 11:29:00,34.9,32.0,29.95,NNW,328,7.0,16.0,89,0.00,,,0.02,Weather View 32 v70,2013-02-16 16:29:00,
2013-02-16 11:34:00,35.1,32.5,29.94,NW,325,4.0,16.0,90,0.00,,,0.02,Weather View 32 v70,2013-02-16 16:34:00,
2013-02-16 11:40:00,35.3,32.4,29.94,NNW,343,5.0,16.0,89,0.00,,,0.02,Weather View 32 v70,2013-02-16 16:40:00,
2013-02-16 11:47:00,35.5,32.3,29.95,NNW,347,4.0,16.0,88,0.00,,,0.02,Weather View 32 v70,2013-02-16 16:47:00,
2013-02-16 11:55:00,36.1,32.8,29.93,North,3,10.0,16.0,88,0.00,,,0.02,Weather View 32 v70,2013-02-16 16:55:00,
2013-02-16 12:00:00,36.1,32.3,29.93,North,3,8.0,16.0,86,0.00,,,0.02,Weather View 32 v70,2013-02-16 17:00:00,
2013-02-16 12:09:00,36.4,32.5,29.93,North,3,5.0,16.0,86,0.00,,,0.02,Weather View 32 v70,2013-02-16 17:09:00,
2013-02-16 12:15:00,36.2,31.9,29.93,NNW,342,5.0,12.0,84,0.00,,,0.02,Weather View 32 v70,2013-02-16 17:15:00,
2013-02-16 12:20:00,36.1,31.7,29.93,NNE,25,6.0,12.0,84,0.00,,,0.02,Weather View 32 v70,2013-02-16 17:20:00,
2013-02-16 12:30:00,35.8,31.4,29.93,NW,322,5.0,12.0,84,0.00,,,0.02,Weather View 32 v70,2013-02-16 17:30:00,
2013-02-16 12:35:00,35.6,31.1,29.93,NNW,335,0.0,12.0,83,0.00,,,0.02,Weather View 32 v70,2013-02-16 17:35:00,
2013-02-16 12:40:00,35.8,31.5,29.92,NNW,328,4.0,12.0,84,0.00,,,0.02,Weather View 32 v70,2013-02-16 17:40:00,
2013-02-16 12:48:00,35.9,31.4,29.92,NW,316,5.0,12.0,84,0.00,,,0.02,Weather View 32 v70,2013-02-16 17:48:00,
2013-02-16 12:55:00,35.9,31.1,29.92,NNE,13,5.0,12.0,83,0.00,,,0.02,Weather View 32 v70,2013-02-16 17:55:00,
2013-02-16 13:00:00,36.0,31.4,29.91,North,10,5.0,11.0,83,0.00,,,0.02,Weather View 32 v70,2013-02-16 18:00:00,
2013-02-16 13:05:00,36.1,31.0,29.92,North,11,1.0,11.0,82,0.00,,,0.02,Weather View 32 v70,2013-02-16 18:05:00,
2013-02-16 13:10:00,36.3,30.9,29.91,NNE,25,1.0,11.0,81,0.00,,,0.02,Weather View 32 v70,2013-02-16 18:10:00,
2013-02-16 13:15:00,36.5,30.7,29.91,North,359,2.0,11.0,79,0.00,,,0.02,Weather View 32 v70,2013-02-16 18:15:00,
2013-02-16 13:20:00,36.6,30.6,29.90,NNE,15,8.0,11.0,79,0.00,,,0.02,Weather View 32 v70,2013-02-16 18:20:00,
2013-02-16 13:25:00,36.6,30.5,29.90,NNE,23,5.0,11.0,78,0.00,,,0.02,Weather View 32 v70,2013-02-16 18:25:00,
2013-02-16 13:30:00,36.8,30.4,29.90,North,8,5.0,11.0,77,0.00,,,0.02,Weather View 32 v70,2013-02-16 18:30:00,
2013-02-16 13:35:00,36.8,30.5,29.90,NW,316,4.0,11.0,78,0.00,,,0.02,Weather View 32 v70,2013-02-16 18:35:00,
2013-02-16 13:40:00,36.9,30.2,29.90,North,1,4.0,11.0,76,0.00,,,0.02,Weather View 32 v70,2013-02-16 18:40:00,
2013-02-16 13:48:00,37.0,29.7,29.90,North,353,3.0,10.0,75,0.00,,,0.02,Weather View 32 v70,2013-02-16 18:48:00,
2013-02-16 13:55:00,37.0,29.4,29.90,North,359,3.0,9.0,74,0.00,,,0.02,Weather View 32 v70,2013-02-16 18:55:00,
2013-02-16 14:05:00,36.9,28.7,29.88,WNW,302,4.0,9.0,72,0.00,,,0.02,Weather View 32 v70,2013-02-16 19:05:00,
2013-02-16 14:10:00,37.0,28.7,29.89,WNW,298,4.0,10.0,72,0.00,,,0.02,Weather View 32 v70,2013-02-16 19:10:00,
2013-02-16 14:15:00,37.1,28.8,29.89,NW,304,2.0,10.0,72,0.00,,,0.02,Weather View 32 v70,2013-02-16 19:15:00,
2013-02-16 14:25:00,37.0,28.0,29.89,WNW,302,4.0,10.0,70,0.00,,,0.02,Weather View 32 v70,2013-02-16 19:25:00,
2013-02-16 14:30:00,36.7,27.7,29.89,North,11,4.0,12.0,70,0.00,,,0.02,Weather View 32 v70,2013-02-16 19:30:00,
2013-02-16 14:39:00,36.6,27.8,29.88,WNW,302,8.0,12.0,70,0.00,,,0.02,Weather View 32 v70,2013-02-16 19:39:00,
2013-02-16 14:45:00,36.6,28.0,29.88,WNW,302,8.0,12.0,71,0.00,,,0.02,Weather View 32 v70,2013-02-16 19:45:00,
2013-02-16 14:54:00,36.7,26.6,29.89,NW,314,5.0,12.0,67,0.00,,,0.02,Weather View 32 v70,2013-02-16 19:54:00,
2013-02-16 14:59:00,36.6,26.3,29.88,NW,316,3.0,13.0,66,0.00,,,0.02,Weather View 32 v70,2013-02-16 19:59:00,
2013-02-16 15:05:00,36.4,25.9,29.88,NNW,329,3.0,13.0,65,0.00,,,0.02,Weather View 32 v70,2013-02-16 20:05:00,
2013-02-16 15:14:00,36.3,25.9,29.88,North,352,7.0,13.0,66,0.00,,,0.02,Weather View 32 v70,2013-02-16 20:14:00,
2013-02-16 15:19:00,36.1,26.4,29.87,NW,318,6.0,13.0,68,0.00,,,0.02,Weather View 32 v70,2013-02-16 20:19:00,
2013-02-16 15:25:00,36.1,26.2,29.88,North,3,7.0,13.0,67,0.00,,,0.02,Weather View 32 v70,2013-02-16 20:25:00,
2013-02-16 15:34:00,36.0,26.1,29.89,NW,325,9.0,13.0,67,0.00,,,0.02,Weather View 32 v70,2013-02-16 20:34:00,
2013-02-16 15:39:00,35.9,25.7,29.89,NW,318,9.0,13.0,66,0.00,,,0.02,Weather View 32 v70,2013-02-16 20:39:00,
2013-02-16 15:49:00,35.6,25.5,29.88,NW,318,5.0,13.0,66,0.00,,,0.02,Weather View 32 v70,2013-02-16 20:49:00,
2013-02-16 15:54:00,35.6,25.7,29.88,NW,318,6.0,13.0,67,0.00,,,0.02,Weather View 32 v70,2013-02-16 20:54:00,
2013-02-16 16:00:00,35.5,25.4,29.88,NNW,338,8.0,13.0,66,0.00,,,0.02,Weather View 32 v70,2013-02-16 21:00:00,
2013-02-16 16:05:00,35.4,25.1,29.88,WNW,297,5.0,13.0,66,0.00,,,0.02,Weather View 32 v70,2013-02-16 21:05:00,
2013-02-16 16:14:00,35.2,25.3,29.88,NNW,330,4.0,13.0,67,0.00,,,0.02,Weather View 32 v70,2013-02-16 21:14:00,
2013-02-16 16:19:00,35.3,25.3,29.88,NW,312,5.0,13.0,67,0.00,,,0.02,Weather View 32 v70,2013-02-16 21:19:00,
2013-02-16 16:24:00,35.2,25.0,29.89,NW,312,6.0,13.0,66,0.00,,,0.02,Weather View 32 v70,2013-02-16 21:24:00,
2013-02-16 16:29:00,35.2,24.8,29.89,NW,304,7.0,13.0,66,0.00,,,0.02,Weather View 32 v70,2013-02-16 21:29:00,
2013-02-16 16:34:00,35.1,24.7,29.88,WNW,291,9.0,13.0,66,0.00,,,0.02,Weather View 32 v70,2013-02-16 21:34:00,
2013-02-16 16:40:00,35.0,24.6,29.88,NW,318,6.0,13.0,66,0.00,,,0.02,Weather View 32 v70,2013-02-16 21:40:00,
2013-02-16 16:45:00,35.0,24.7,29.89,North,8,7.0,13.0,66,0.00,,,0.02,Weather View 32 v70,2013-02-16 21:45:00,
2013-02-16 16:50:00,34.8,25.0,29.89,NW,319,3.0,13.0,67,0.00,,,0.02,Weather View 32 v70,2013-02-16 21:50:00,
2013-02-16 17:00:00,34.6,24.8,29.89,NNW,340,5.0,13.0,67,0.00,,,0.02,Weather View 32 v70,2013-02-16 22:00:00,
2013-02-16 17:09:00,34.2,24.0,29.89,WNW,284,12.0,13.0,66,0.00,,,0.02,Weather View 32 v70,2013-02-16 22:09:00,
2013-02-16 17:14:00,34.1,23.2,29.89,NW,326,11.0,13.0,64,0.00,,,0.02,Weather View 32 v70,2013-02-16 22:14:00,
2013-02-16 17:20:00,34.0,22.9,29.90,WNW,297,8.0,13.0,64,0.00,,,0.02,Weather View 32 v70,2013-02-16 22:20:00,
2013-02-16 17:29:00,33.8,23.3,29.90,NW,305,7.0,13.0,65,0.00,,,0.02,Weather View 32 v70,2013-02-16 22:29:00,
2013-02-16 17:34:00,33.7,23.5,29.90,NW,316,5.0,13.0,66,0.00,,,0.02,Weather View 32 v70,2013-02-16 22:34:00,
2013-02-16 17:40:00,33.6,23.2,29.90,NW,308,6.0,13.0,65,0.00,,,0.02,Weather View 32 v70,2013-02-16 22:40:00,
2013-02-16 17:49:00,33.3,23.1,29.90,NW,326,3.0,13.0,66,0.00,,,0.02,Weather View 32 v70,2013-02-16 22:49:00,
2013-02-16 17:55:00,33.2,22.6,29.90,NNE,13,5.0,13.0,65,0.00,,,0.02,Weather View 32 v70,2013-02-16 22:55:00,
2013-02-16 18:04:00,32.9,22.2,29.91,NW,314,6.0,13.0,65,0.00,,,0.02,Weather View 32 v70,2013-02-16 23:04:00,
2013-02-16 18:09:00,32.8,22.0,29.91,North,359,5.0,13.0,64,0.00,,,0.02,Weather View 32 v70,2013-02-16 23:09:00,
2013-02-16 18:15:00,32.6,21.8,29.91,NW,326,3.0,12.0,64,0.00,,,0.02,Weather View 32 v70,2013-02-16 23:15:00,
2013-02-16 18:20:00,32.7,22.2,29.91,North,349,7.0,10.0,65,0.00,,,0.02,Weather View 32 v70,2013-02-16 23:20:00,
2013-02-16 18:25:00,32.5,21.8,29.91,NW,326,5.0,10.0,64,0.00,,,0.02,Weather View 32 v70,2013-02-16 23:25:00,
2013-02-16 18:30:00,32.5,21.4,29.91,WNW,295,8.0,12.0,63,0.00,,,0.02,Weather View 32 v70,2013-02-16 23:30:00,
2013-02-16 18:35:00,32.4,21.0,29.91,NW,326,6.0,12.0,63,0.00,,,0.02,Weather View 32 v70,2013-02-16 23:35:00,
2013-02-16 18:40:00,32.4,21.2,29.91,North,3,5.0,12.0,63,0.00,,,0.02,Weather View 32 v70,2013-02-16 23:40:00,
2013-02-16 18:50:00,32.3,20.9,29.91,WNW,294,4.0,13.0,62,0.00,,,0.02,Weather View 32 v70,2013-02-16 23:50:00,
2013-02-16 18:55:00,32.4,21.2,29.92,North,349,4.0,13.0,63,0.00,,,0.02,Weather View 32 v70,2013-02-16 23:55:00,
2013-02-16 19:00:00,32.4,21.3,29.91,North,352,3.0,13.0,63,0.00,,,0.02,Weather View 32 v70,2013-02-17 00:00:00,
2013-02-16 19:10:00,32.1,21.2,29.91,NW,307,2.0,13.0,64,0.00,,,0.02,Weather View 32 v70,2013-02-17 00:10:00,
2013-02-16 19:15:00,32.1,21.0,29.92,North,353,5.0,13.0,63,0.00,,,0.02,Weather View 32 v70,2013-02-17 00:15:00,
2013-02-16 19:20:00,31.9,20.7,29.91,NNW,333,4.0,13.0,63,0.00,,,0.02,Weather View 32 v70,2013-02-17 00:20:00,
2013-02-16 19:29:00,31.8,21.0,29.91,North,353,5.0,13.0,64,0.00,,,0.02,Weather View 32 v70,2013-02-17 00:29:00,
2013-02-16 19:35:00,31.6,20.8,29.91,WNW,295,5.0,13.0,64,0.00,,,0.02,Weather View 32 v70,2013-02-17 00:35:00,
2013-02-16 19:40:00,31.6,20.7,29.91,NW,318,5.0,13.0,64,0.00,,,0.02,Weather View 32 v70,2013-02-17 00:40:00,
2013-02-16 19:49:00,31.4,20.7,29.91,NNW,336,5.0,11.0,64,0.00,,,0.02,Weather View 32 v70,2013-02-17 00:49:00,
2013-02-16 19:55:00,31.2,20.6,29.91,North,357,6.0,11.0,65,0.00,,,0.02,Weather View 32 v70,2013-02-17 00:55:00,
2013-02-16 20:00:00,31.1,20.5,29.91,NNE,14,5.0,11.0,65,0.00,,,0.02,Weather View 32 v70,2013-02-17 01:00:00,
2013-02-16 20:09:00,30.9,20.7,29.91,NNW,345,3.0,10.0,65,0.00,,,0.02,Weather View 32 v70,2013-02-17 01:09:00,
2013-02-16 20:15:00,30.8,20.6,29.91,NNW,338,4.0,10.0,66,0.00,,,0.02,Weather View 32 v70,2013-02-17 01:15:00,
2013-02-16 20:24:00,30.7,20.5,29.91,WNW,291,5.0,9.0,66,0.00,,,0.02,Weather View 32 v70,2013-02-17 01:24:00,
2013-02-16 20:29:00,30.7,20.4,29.91,NW,314,3.0,9.0,65,0.00,,,0.02,Weather View 32 v70,2013-02-17 01:29:00,
2013-02-16 20:35:00,30.6,20.5,29.91,NW,319,4.0,9.0,66,0.00,,,0.02,Weather View 32 v70,2013-02-17 01:35:00,
2013-02-16 20:40:00,30.6,20.7,29.91,NW,315,1.0,9.0,66,0.00,,,0.02,Weather View 32 v70,2013-02-17 01:40:00,
2013-02-16 20:49:00,30.5,21.1,29.91,NW,319,1.0,8.0,68,0.00,,,0.02,Weather View 32 v70,2013-02-17 01:49:00,
2013-02-16 20:55:00,30.4,21.6,29.91,WNW,301,0.0,8.0,70,0.00,,,0.02,Weather View 32 v70,2013-02-17 01:55:00,
2013-02-16 21:00:00,30.3,21.3,29.91,NNW,342,5.0,7.0,69,0.00,,,0.02,Weather View 32 v70,2013-02-17 02:00:00,
2013-02-16 21:09:00,29.9,20.8,29.91,NNW,338,3.0,7.0,68,0.00,,,0.02,Weather View 32 v70,2013-02-17 02:09:00,
2013-02-16 21:15:00,29.7,20.5,29.91,NW,315,2.0,7.0,68,0.00,,,0.02,Weather View 32 v70,2013-02-17 02:15:00,
2013-02-16 21:20:00,29.6,20.5,29.91,NNW,342,5.0,8.0,68,0.00,,,0.02,Weather View 32 v70,2013-02-17 02:20:00,
2013-02-16 21:29:00,29.6,20.4,29.91,North,10,4.0,8.0,68,0.00,,,0.02,Weather View 32 v70,2013-02-17 02:29:00,
2013-02-16 21:35:00,29.6,20.4,29.91,North,1,4.0,8.0,68,0.00,,,0.02,Weather View 32 v70,2013-02-17 02:35:00,
2013-02-16 21:40:00,29.5,20.6,29.91,NNW,336,1.0,8.0,69,0.00,,,0.02,Weather View 32 v70,2013-02-17 02:40:00,
2013-02-16 21:49:00,29.1,20.3,29.91,NNE,14,3.0,10.0,69,0.00,,,0.02,Weather View 32 v70,2013-02-17 02:49:00,
2013-02-16 21:55:00,28.9,20.1,29.91,WNW,287,8.0,10.0,69,0.00,,,0.02,Weather View 32 v70,2013-02-17 02:55:00,
2013-02-16 22:00:00,29.1,20.3,29.91,NW,307,9.0,12.0,69,0.00,,,0.02,Weather View 32 v70,2013-02-17 03:00:00,
2013-02-16 22:10:00,29.1,20.4,29.91,NW,311,7.0,13.0,70,0.00,,,0.02,Weather View 32 v70,2013-02-17 03:10:00,
2013-02-16 22:15:00,29.1,20.7,29.91,NW,314,8.0,13.0,71,0.00,,,0.02,Weather View 32 v70,2013-02-17 03:15:00,
2013-02-16 22:20:00,29.1,20.6,29.91,NW,305,5.0,13.0,70,0.00,,,0.02,Weather View 32 v70,2013-02-17 03:20:00,
2013-02-16 22:30:00,29.1,20.8,29.91,WNW,284,5.0,13.0,71,0.00,,,0.02,Weather View 32 v70,2013-02-17 03:30:00,
2013-02-16 22:35:00,29.1,20.9,29.90,WNW,302,4.0,13.0,71,0.00,,,0.02,Weather View 32 v70,2013-02-17 03:35:00,
2013-02-16 22:40:00,29.2,21.0,29.90,NW,318,4.0,13.0,71,0.00,,,0.02,Weather View 32 v70,2013-02-17 03:40:00,
2013-02-16 22:50:00,29.3,21.3,29.90,WNW,284,2.0,13.0,72,0.00,,,0.02,Weather View 32 v70,2013-02-17 03:50:00,
2013-02-16 22:55:00,29.2,21.1,29.90,West,277,3.0,13.0,72,0.00,,,0.02,Weather View 32 v70,2013-02-17 03:55:00,
2013-02-16 23:00:00,29.2,21.2,29.90,WNW,287,2.0,13.0,72,0.00,,,0.02,Weather View 32 v70,2013-02-17 04:00:00,
2013-02-16 23:10:00,28.9,21.0,29.90,WNW,300,1.0,12.0,72,0.00,,,0.02,Weather View 32 v70,2013-02-17 04:10:00,
2013-02-16 23:15:00,28.7,20.9,29.90,West,274,0.0,12.0,72,0.00,,,0.02,Weather View 32 v70,2013-02-17 04:15:00,
2013-02-16 23:20:00,28.6,20.8,29.90,West,274,0.0,9.0,72,0.00,,,0.02,Weather View 32 v70,2013-02-17 04:20:00,
2013-02-16 23:30:00,28.2,20.6,29.90,West,271,3.0,7.0,73,0.00,,,0.02,Weather View 32 v70,2013-02-17 04:30:00,
2013-02-16 23:35:00,28.2,20.6,29.90,WSW,252,0.0,7.0,73,0.00,,,0.02,Weather View 32 v70,2013-02-17 04:35:00,
2013-02-16 23:40:00,28.0,20.7,29.90,WSW,252,0.0,6.0,74,0.00,,,0.02,Weather View 32 v70,2013-02-17 04:40:00,
2013-02-16 23:50:00,27.6,20.6,29.90,NW,304,0.0,6.0,75,0.00,,,0.02,Weather View 32 v70,2013-02-17 04:50:00,
2013-02-16 23:55:00,27.6,20.4,29.90,NW,316,1.0,6.0,74,0.00,,,0.02,Weather View 32 v70,2013-02-17 04:55:00,